createdAt,value
2019-04-29T00:00:34.002Z,1.10
2019-04-29T00:03:03.363Z,1.30
2019-04-29T00:05:32.648Z,1.30
2019-04-29T00:08:02.188Z,0.90
2019-04-29T00:10:31.902Z,1.27
2019-04-29T00:13:01.367Z,1.20
2019-04-29T00:15:38.278Z,1.35
2019-04-29T00:18:11.910Z,1.00
2019-04-29T00:20:42.823Z,1.40
2019-04-29T00:23:12.110Z,1.20
2019-04-29T00:25:41.629Z,0.98
2019-04-29T00:28:11.182Z,1.15
2019-04-29T00:30:41.151Z,1.25
2019-04-29T00:33:10.443Z,1.30
2019-04-29T00:35:40.161Z,1.15
2019-04-29T00:38:27.584Z,1.45
2019-04-29T00:41:01.426Z,2.10
2019-04-29T00:43:32.360Z,1.55
2019-04-29T00:46:01.634Z,1.32
2019-04-29T00:48:30.911Z,1.20
2019-04-29T00:51:00.267Z,1.90
2019-04-29T00:53:29.728Z,1.20
2019-04-29T00:56:00.646Z,1.22
2019-04-29T00:58:29.930Z,1.40
2019-04-29T01:00:59.346Z,1.10
2019-04-29T01:03:29.090Z,1.50
2019-04-29T01:05:58.647Z,1.40
2019-04-29T01:08:27.999Z,1.27
2019-04-29T01:10:57.280Z,1.40
2019-04-29T01:13:26.563Z,1.60
2019-04-29T01:15:55.834Z,1.57
2019-04-29T01:18:25.131Z,1.90
2019-04-29T01:20:54.707Z,1.75
2019-04-29T01:23:24.002Z,1.22
2019-04-29T01:25:54.992Z,1.35
2019-04-29T01:28:28.631Z,1.50
2019-04-29T01:31:01.895Z,1.37
2019-04-29T01:33:31.187Z,1.60
2019-04-29T01:36:04.791Z,1.60
2019-04-29T01:38:34.078Z,1.47
2019-04-29T01:41:21.550Z,1.87
2019-04-29T01:44:04.805Z,1.98
2019-04-29T01:46:34.096Z,1.30
2019-04-29T01:49:03.546Z,1.75
2019-04-29T01:51:32.843Z,1.67
2019-04-29T01:54:02.119Z,1.92
2019-04-29T01:56:31.402Z,1.60
2019-04-29T01:59:00.678Z,1.27
2019-04-29T02:01:29.963Z,1.50
2019-04-29T02:03:59.242Z,1.35
2019-04-29T02:06:28.815Z,1.50
2019-04-29T02:08:58.107Z,1.22
2019-04-29T02:11:27.378Z,1.45
2019-04-29T02:13:56.671Z,2.02
2019-04-29T02:16:25.974Z,1.47
2019-04-29T02:18:55.309Z,1.32
2019-04-29T02:21:24.574Z,1.10
2019-04-29T02:23:55.503Z,1.00
2019-04-29T02:26:24.795Z,1.00
2019-04-29T02:28:54.078Z,1.10
2019-04-29T02:31:38.560Z,1.07
2019-04-29T02:34:08.493Z,1.32
2019-04-29T02:36:38.528Z,1.02
2019-04-29T02:39:31.351Z,1.10
2019-04-29T02:42:18.932Z,1.72
2019-04-29T02:44:48.746Z,1.35
2019-04-29T02:47:18.016Z,1.50
2019-04-29T02:49:47.307Z,1.25
2019-04-29T02:52:16.855Z,1.45
2019-04-29T02:54:46.710Z,1.12
2019-04-29T02:57:32.986Z,1.60
2019-04-29T03:00:12.759Z,1.55
2019-04-29T03:02:43.692Z,1.30
2019-04-29T03:05:23.674Z,1.07
2019-04-29T03:07:53.037Z,1.70
2019-04-29T03:10:22.375Z,1.30
2019-04-29T03:12:51.670Z,1.30
2019-04-29T03:15:24.025Z,1.70
2019-04-29T03:17:53.387Z,1.27
2019-04-29T03:20:29.778Z,1.30
2019-04-29T03:23:06.768Z,1.55
2019-04-29T03:25:36.212Z,2.02
2019-04-29T03:28:05.750Z,1.02
2019-04-29T03:30:35.350Z,1.32
2019-04-29T03:33:04.755Z,1.10
2019-04-29T03:35:34.042Z,1.10
2019-04-29T03:38:03.612Z,1.30
2019-04-29T03:40:32.918Z,1.12
2019-04-29T03:43:02.264Z,1.20
2019-04-29T03:45:31.877Z,1.15
2019-04-29T03:48:01.160Z,1.30
2019-04-29T03:50:30.673Z,1.00
2019-04-29T03:52:59.967Z,1.40
2019-04-29T03:55:39.071Z,1.12
2019-04-29T03:58:00.284Z,1.20
2019-04-29T04:00:29.923Z,1.37
2019-04-29T04:03:03.473Z,1.42
2019-04-29T04:05:34.402Z,1.12
2019-04-29T04:08:11.138Z,1.10
2019-04-29T04:10:40.424Z,1.10
2019-04-29T04:13:09.949Z,1.50
2019-04-29T04:15:39.560Z,1.45
2019-04-29T04:18:19.927Z,1.10
2019-04-29T04:20:49.261Z,1.25
2019-04-29T04:23:18.551Z,1.45
2019-04-29T04:25:47.823Z,1.20
2019-04-29T04:28:17.135Z,1.25
2019-04-29T04:30:46.443Z,1.60
2019-04-29T04:33:16.128Z,1.00
2019-04-29T04:35:45.637Z,1.27
2019-04-29T04:38:14.904Z,1.27
2019-04-29T04:41:04.175Z,1.40
2019-04-29T04:43:33.578Z,1.50
2019-04-29T04:46:02.839Z,1.82
2019-04-29T04:48:32.131Z,1.30
2019-04-29T04:51:01.420Z,1.65
2019-04-29T04:53:30.706Z,2.55
2019-04-29T04:56:01.351Z,2.47
2019-04-29T04:58:30.637Z,1.87
2019-04-29T05:00:59.957Z,1.90
2019-04-29T05:03:29.239Z,2.10
2019-04-29T05:05:58.515Z,2.60
2019-04-29T05:08:27.798Z,1.98
2019-04-29T05:10:57.344Z,2.05
2019-04-29T05:13:28.392Z,1.80
2019-04-29T05:15:58.022Z,2.30
2019-04-29T05:18:27.296Z,2.52
2019-04-29T05:20:56.584Z,3.33
2019-04-29T05:23:25.866Z,2.87
2019-04-29T05:25:55.413Z,3.80
2019-04-29T05:28:24.717Z,3.08
2019-04-29T05:30:53.991Z,3.52
2019-04-29T05:33:23.272Z,3.70
2019-04-29T05:36:01.936Z,3.00
2019-04-29T05:38:35.523Z,3.20
2019-04-29T05:41:04.845Z,3.75
2019-04-29T05:43:53.887Z,3.30
2019-04-29T05:46:40.202Z,4.05
2019-04-29T05:49:11.226Z,4.97
2019-04-29T05:51:47.938Z,4.80
2019-04-29T05:54:21.573Z,5.15
2019-04-29T05:56:50.902Z,5.45
2019-04-29T05:59:20.179Z,6.08
2019-04-29T06:01:49.473Z,6.05
2019-04-29T06:04:18.816Z,6.22
2019-04-29T06:06:48.103Z,6.28
2019-04-29T06:09:18.369Z,5.97
2019-04-29T06:11:47.927Z,6.70
2019-04-29T06:14:17.219Z,6.90
2019-04-29T06:16:46.494Z,5.60
2019-04-29T06:19:16.056Z,6.35
2019-04-29T06:21:45.342Z,6.83
2019-04-29T06:24:14.859Z,6.90
2019-04-29T06:26:44.161Z,6.22
2019-04-29T06:29:13.430Z,7.10
2019-04-29T06:31:42.788Z,6.97
2019-04-29T06:34:12.367Z,6.37
2019-04-29T06:36:41.641Z,6.53
2019-04-29T06:39:10.935Z,7.00
2019-04-29T06:41:40.494Z,6.87
2019-04-29T06:44:15.918Z,7.17
2019-04-29T06:46:42.460Z,6.33
2019-04-29T06:49:11.784Z,6.25
2019-04-29T06:51:41.122Z,6.42
2019-04-29T06:54:10.667Z,6.65
2019-04-29T06:56:39.957Z,6.42
2019-04-29T06:59:11.992Z,7.78
2019-04-29T07:01:40.235Z,7.50
2019-04-29T07:04:09.516Z,7.60
2019-04-29T07:06:38.826Z,8.10
2019-04-29T07:09:08.122Z,8.20
2019-04-29T07:11:38.483Z,6.83
2019-04-29T07:14:07.982Z,7.22
2019-04-29T07:16:37.254Z,6.53
2019-04-29T07:19:06.615Z,7.33
2019-04-29T07:21:35.898Z,7.15
2019-04-29T07:24:05.256Z,7.58
2019-04-29T07:26:34.555Z,7.78
2019-04-29T07:29:04.147Z,7.10
2019-04-29T07:31:35.109Z,7.08
2019-04-29T07:34:04.672Z,7.30
2019-04-29T07:36:33.955Z,8.20
2019-04-29T07:39:04.707Z,7.42
2019-04-29T07:41:34.240Z,7.80
2019-04-29T07:44:04.025Z,7.17
2019-04-29T07:46:55.678Z,8.75
2019-04-29T07:49:12.767Z,8.30
2019-04-29T07:51:40.809Z,7.40
2019-04-29T07:54:11.046Z,7.47
2019-04-29T07:56:42.463Z,7.05
2019-04-29T07:59:12.756Z,6.25
2019-04-29T08:01:42.036Z,6.78
2019-04-29T08:04:12.339Z,7.42
2019-04-29T08:06:44.700Z,5.85
2019-04-29T08:09:13.718Z,7.25
2019-04-29T08:11:43.130Z,6.62
2019-04-29T08:14:12.656Z,6.33
2019-04-29T08:16:41.959Z,5.97
2019-04-29T08:19:11.571Z,6.45
2019-04-29T08:21:41.174Z,5.83
2019-04-29T08:24:11.553Z,5.30
2019-04-29T08:26:47.302Z,5.65
2019-04-29T08:29:13.002Z,5.70
2019-04-29T08:31:42.304Z,6.15
2019-04-29T08:34:11.587Z,6.17
2019-04-29T08:36:40.887Z,5.47
2019-04-29T08:39:10.165Z,5.87
2019-04-29T08:41:41.119Z,6.15
2019-04-29T08:44:21.577Z,6.00
2019-04-29T08:46:52.912Z,6.15
2019-04-29T08:49:22.260Z,6.10
2019-04-29T08:51:51.594Z,5.75
2019-04-29T08:54:21.409Z,5.22
2019-04-29T08:57:02.417Z,6.35
2019-04-29T08:59:24.420Z,2.90
2019-04-29T09:01:53.175Z,4.33
2019-04-29T09:04:22.471Z,5.33
2019-04-29T09:06:51.918Z,5.50
2019-04-29T09:09:29.187Z,5.78
2019-04-29T09:11:52.187Z,5.30
2019-04-29T09:14:21.491Z,2.72
2019-04-29T09:16:51.083Z,1.40
2019-04-29T09:19:20.691Z,1.37
2019-04-29T09:21:51.935Z,1.12
2019-04-29T09:24:21.227Z,1.42
2019-04-29T09:26:52.138Z,1.35
2019-04-29T09:29:30.731Z,1.20
2019-04-29T09:32:00.839Z,1.42
2019-04-29T09:34:30.420Z,1.20
2019-04-29T09:36:59.707Z,1.52
2019-04-29T09:39:42.367Z,1.20
2019-04-29T09:42:20.653Z,1.15
2019-04-29T09:45:03.320Z,1.50
2019-04-29T09:47:33.075Z,1.50
2019-04-29T09:50:02.436Z,1.32
2019-04-29T09:52:31.720Z,1.00
2019-04-29T09:55:04.136Z,1.25
2019-04-29T09:57:32.108Z,1.22
2019-04-29T10:00:12.019Z,1.07
2019-04-29T10:02:45.731Z,1.32
2019-04-29T10:05:22.991Z,1.10
2019-04-29T10:07:52.267Z,1.05
2019-04-29T10:10:21.549Z,1.25
2019-04-29T10:12:53.783Z,1.70
2019-04-29T10:15:24.145Z,1.20
2019-04-29T10:18:07.255Z,1.00
2019-04-29T10:20:44.364Z,1.40
2019-04-29T10:23:13.635Z,1.25
2019-04-29T10:25:42.927Z,1.15
2019-04-29T10:28:12.198Z,1.02
2019-04-29T10:30:41.859Z,1.62
2019-04-29T10:33:12.815Z,1.15
2019-04-29T10:35:45.251Z,1.65
2019-04-29T10:38:13.815Z,1.57
2019-04-29T10:41:00.138Z,1.42
2019-04-29T10:43:29.270Z,1.07
2019-04-29T10:46:02.867Z,1.50
2019-04-29T10:48:39.835Z,1.70
2019-04-29T10:51:10.819Z,1.82
2019-04-29T10:53:40.111Z,1.27
2019-04-29T10:56:09.398Z,1.35
2019-04-29T10:58:38.707Z,1.10
2019-04-29T11:01:30.614Z,1.30
2019-04-29T11:04:00.752Z,1.22
2019-04-29T11:06:31.346Z,1.00
2019-04-29T11:09:03.583Z,1.67
2019-04-29T11:11:35.183Z,1.45
2019-04-29T11:14:04.533Z,1.55
2019-04-29T11:16:46.265Z,1.62
2019-04-29T11:19:05.752Z,1.40
2019-04-29T11:21:38.901Z,1.62
2019-04-29T11:24:12.052Z,1.70
2019-04-29T11:26:44.721Z,2.20
2019-04-29T11:29:13.944Z,1.67
2019-04-29T11:31:43.611Z,1.60
2019-04-29T11:34:15.973Z,1.35
2019-04-29T11:36:45.555Z,1.45
2019-04-29T11:39:16.039Z,2.35
2019-04-29T11:41:45.538Z,1.95
2019-04-29T11:44:14.818Z,2.37
2019-04-29T11:46:44.542Z,2.15
2019-04-29T11:49:16.786Z,2.50
2019-04-29T11:52:07.796Z,2.15
2019-04-29T11:54:18.421Z,2.15
2019-04-29T11:56:48.726Z,2.15
2019-04-29T11:59:25.903Z,1.92
2019-04-29T12:01:59.598Z,2.08
2019-04-29T12:04:35.335Z,1.60
2019-04-29T12:07:05.184Z,1.70
2019-04-29T12:09:34.889Z,2.12
2019-04-29T12:12:08.041Z,1.40
2019-04-29T12:14:37.968Z,2.00
2019-04-29T12:17:09.483Z,1.77
2019-04-29T12:19:43.405Z,1.75
2019-04-29T12:22:26.877Z,1.77
2019-04-29T12:24:43.642Z,2.22
2019-04-29T12:27:14.959Z,1.65
2019-04-29T12:29:44.599Z,2.22
2019-04-29T12:32:33.715Z,1.67
2019-04-29T12:35:16.607Z,1.45
2019-04-29T12:37:46.123Z,1.30
2019-04-29T12:40:17.504Z,1.70
2019-04-29T12:43:05.101Z,1.45
2019-04-29T12:45:53.571Z,1.37
2019-04-29T12:48:24.982Z,1.37
2019-04-29T12:50:57.317Z,1.80
2019-04-29T12:53:24.078Z,1.20
2019-04-29T12:55:55.039Z,1.65
2019-04-29T12:58:25.870Z,1.75
2019-04-29T13:01:01.167Z,1.70
2019-04-29T13:03:39.498Z,1.55
2019-04-29T13:06:23.222Z,1.75
2019-04-29T13:08:49.635Z,1.90
2019-04-29T13:11:20.780Z,1.60
2019-04-29T13:13:51.377Z,2.05
2019-04-29T13:16:25.207Z,1.98
2019-04-29T13:19:11.634Z,1.60
2019-04-29T13:21:33.157Z,1.92
2019-04-29T13:24:13.453Z,1.65
2019-04-29T13:26:36.922Z,1.30
2019-04-29T13:29:04.551Z,1.92
2019-04-29T13:31:38.699Z,2.05
2019-04-29T13:34:22.925Z,2.10
2019-04-29T13:36:37.791Z,2.30
2019-04-29T13:39:08.380Z,2.05
2019-04-29T13:41:55.517Z,2.17
2019-04-29T13:44:08.647Z,2.17
2019-04-29T13:46:46.175Z,2.15
2019-04-29T13:49:15.281Z,2.37
2019-04-29T13:51:46.055Z,2.05
2019-04-29T13:54:15.331Z,1.70
2019-04-29T13:56:55.640Z,2.00
2019-04-29T13:59:29.483Z,2.17
2019-04-29T14:02:07.242Z,1.60
2019-04-29T14:04:41.811Z,1.77
2019-04-29T14:07:14.175Z,2.00
2019-04-29T14:09:42.161Z,2.10
2019-04-29T14:12:46.429Z,1.70
2019-04-29T14:14:42.727Z,1.87
2019-04-29T14:17:25.880Z,2.30
2019-04-29T14:19:43.008Z,2.42
2019-04-29T14:22:22.135Z,3.00
2019-04-29T14:24:46.558Z,2.67
2019-04-29T14:27:24.707Z,3.37
2019-04-29T14:29:45.243Z,2.70
2019-04-29T14:32:18.134Z,3.10
2019-04-29T14:34:47.147Z,2.72
2019-04-29T14:37:24.460Z,2.52
2019-04-29T14:39:47.415Z,2.55
2019-04-29T14:42:21.263Z,2.75
2019-04-29T14:44:54.875Z,3.37
2019-04-29T14:47:42.171Z,2.65
2019-04-29T14:50:15.547Z,2.90
2019-04-29T14:52:48.854Z,2.52
2019-04-29T14:55:19.861Z,2.40
2019-04-29T14:57:46.503Z,2.92
2019-04-29T15:00:23.550Z,2.95
2019-04-29T15:02:55.848Z,2.77
2019-04-29T15:05:23.943Z,2.90
2019-04-29T15:07:53.274Z,2.75
2019-04-29T15:10:22.577Z,2.70
2019-04-29T15:13:01.444Z,3.25
2019-04-29T15:15:29.799Z,3.17
2019-04-29T15:18:25.582Z,3.27
2019-04-29T15:20:56.287Z,4.53
2019-04-29T15:23:29.292Z,3.35
2019-04-29T15:25:56.127Z,3.72
2019-04-29T15:28:25.422Z,4.30
2019-04-29T15:30:54.711Z,4.05
2019-04-29T15:33:23.997Z,4.50
2019-04-29T15:35:54.862Z,4.67
2019-04-29T15:38:24.250Z,4.42
2019-04-29T15:40:53.559Z,4.10
2019-04-29T15:43:45.048Z,3.95
2019-04-29T15:45:53.818Z,4.05
2019-04-29T15:48:23.093Z,3.92
2019-04-29T15:50:52.715Z,3.83
2019-04-29T15:53:21.982Z,4.03
2019-04-29T15:56:05.694Z,4.17
2019-04-29T15:58:27.056Z,4.17
2019-04-29T16:00:53.299Z,3.67
2019-04-29T16:03:22.586Z,4.65
2019-04-29T16:06:11.041Z,3.90
2019-04-29T16:08:29.626Z,4.10
2019-04-29T16:11:00.654Z,5.08
2019-04-29T16:13:30.251Z,4.22
2019-04-29T16:15:59.535Z,4.78
2019-04-29T16:18:28.826Z,4.12
2019-04-29T16:20:58.164Z,4.15
2019-04-29T16:23:27.483Z,4.00
2019-04-29T16:25:56.778Z,4.05
2019-04-29T16:28:31.795Z,4.72
2019-04-29T16:30:57.303Z,4.78
2019-04-29T16:33:26.825Z,4.35
2019-04-29T16:35:57.668Z,4.65
2019-04-29T16:38:27.350Z,4.75
2019-04-29T16:40:58.275Z,4.53
2019-04-29T16:43:35.351Z,5.17
2019-04-29T16:46:12.067Z,4.83
2019-04-29T16:48:41.348Z,4.15
2019-04-29T16:51:14.635Z,4.70
2019-04-29T16:53:41.947Z,4.62
2019-04-29T16:56:16.001Z,4.80
2019-04-29T16:58:42.203Z,4.70
2019-04-29T17:01:11.559Z,3.83
2019-04-29T17:03:40.834Z,4.30
2019-04-29T17:06:10.123Z,4.50
2019-04-29T17:09:03.306Z,4.87
2019-04-29T17:11:41.365Z,3.83
2019-04-29T17:14:13.078Z,4.40
2019-04-29T17:16:41.884Z,4.90
2019-04-29T17:19:11.463Z,4.67
2019-04-29T17:21:40.777Z,3.87
2019-04-29T17:24:10.051Z,5.05
2019-04-29T17:26:46.771Z,4.25
2019-04-29T17:29:38.926Z,5.40
2019-04-29T17:32:12.339Z,4.87
2019-04-29T17:34:58.323Z,6.60
2019-04-29T17:37:13.571Z,6.50
2019-04-29T17:39:42.934Z,5.20
2019-04-29T17:42:12.461Z,4.97
2019-04-29T17:44:45.803Z,4.97
2019-04-29T17:47:19.426Z,5.08
2019-04-29T17:49:50.814Z,5.97
2019-04-29T17:52:21.910Z,5.05
2019-04-29T17:54:55.770Z,5.65
2019-04-29T17:57:36.403Z,5.92
2019-04-29T18:00:11.987Z,5.28
2019-04-29T18:02:52.522Z,12.30
2019-04-29T18:05:32.953Z,11.20
2019-04-29T18:08:06.319Z,6.60
2019-04-29T18:10:40.298Z,5.72
2019-04-29T18:13:12.319Z,5.50
2019-04-29T18:15:57.604Z,5.45
2019-04-29T18:18:17.297Z,5.50
2019-04-29T18:21:06.457Z,5.47
2019-04-29T18:23:56.795Z,6.20
2019-04-29T18:26:35.835Z,6.30
2019-04-29T18:29:07.738Z,5.70
2019-04-29T18:31:36.331Z,5.58
2019-04-29T18:34:05.695Z,6.70
2019-04-29T18:36:35.670Z,6.15
2019-04-29T18:39:08.576Z,6.75
2019-04-29T18:41:38.758Z,7.65
2019-04-29T18:44:08.050Z,6.17
2019-04-29T18:46:37.330Z,6.30
2019-04-29T18:49:08.081Z,6.83
2019-04-29T18:51:37.338Z,7.85
2019-04-29T18:54:06.903Z,7.92
2019-04-29T18:56:37.705Z,7.95
2019-04-29T18:59:07.374Z,7.10
2019-04-29T19:01:36.655Z,6.15
2019-04-29T19:04:16.192Z,7.12
2019-04-29T19:06:41.307Z,7.67
2019-04-29T19:09:17.997Z,7.10
2019-04-29T19:11:42.251Z,7.12
2019-04-29T19:14:11.615Z,7.40
2019-04-29T19:16:40.904Z,8.70
2019-04-29T19:19:10.187Z,7.00
2019-04-29T19:21:39.467Z,7.42
2019-04-29T19:24:08.822Z,8.63
2019-04-29T19:26:38.119Z,7.80
2019-04-29T19:29:09.598Z,8.18
2019-04-29T19:31:46.707Z,8.58
2019-04-29T19:34:13.445Z,9.00
2019-04-29T19:36:40.678Z,9.00
2019-04-29T19:39:10.208Z,8.35
2019-04-29T19:41:39.762Z,8.78
2019-04-29T19:44:09.042Z,9.43
2019-04-29T19:46:41.282Z,8.88
2019-04-29T19:49:10.148Z,10.55
2019-04-29T19:51:43.716Z,8.70
2019-04-29T19:54:10.495Z,9.33
2019-04-29T19:56:39.795Z,9.10
2019-04-29T19:59:13.322Z,9.75
2019-04-29T20:01:40.688Z,10.03
2019-04-29T20:04:19.700Z,10.43
2019-04-29T20:06:46.871Z,8.58
2019-04-29T20:09:21.368Z,8.85
2019-04-29T20:11:47.677Z,9.35
2019-04-29T20:14:26.002Z,9.93
2019-04-29T20:16:57.566Z,9.75
2019-04-29T20:19:27.431Z,10.05
2019-04-29T20:22:00.380Z,9.65
2019-04-29T20:24:27.795Z,10.40
2019-04-29T20:26:57.262Z,11.80
2019-04-29T20:29:33.517Z,11.28
2019-04-29T20:31:57.590Z,11.78
2019-04-29T20:34:28.246Z,11.73
2019-04-29T20:36:58.166Z,12.18
2019-04-29T20:39:27.798Z,12.88
2019-04-29T20:42:00.935Z,12.58
2019-04-29T20:44:28.339Z,12.28
2019-04-29T20:47:20.381Z,12.23
2019-04-29T20:49:30.876Z,11.38
2019-04-29T20:52:05.529Z,13.18
2019-04-29T20:54:36.257Z,11.45
2019-04-29T20:57:17.392Z,11.20
2019-04-29T20:59:37.122Z,11.85
2019-04-29T21:02:12.605Z,11.20
2019-04-29T21:04:46.267Z,12.90
2019-04-29T21:07:10.759Z,12.18
2019-04-29T21:09:40.049Z,12.33
2019-04-29T21:12:10.986Z,12.00
2019-04-29T21:14:42.190Z,13.13
2019-04-29T21:17:11.499Z,12.33
2019-04-29T21:19:41.103Z,11.65
2019-04-29T21:22:12.971Z,9.85
2019-04-29T21:24:41.374Z,8.73
2019-04-29T21:27:10.952Z,9.25
2019-04-29T21:29:40.558Z,10.25
2019-04-29T21:32:10.188Z,10.32
2019-04-29T21:34:41.107Z,9.98
2019-04-29T21:37:21.090Z,9.28
2019-04-29T21:39:52.027Z,9.38
2019-04-29T21:42:41.250Z,9.33
2019-04-29T21:45:12.366Z,11.43
2019-04-29T21:47:45.138Z,9.18
2019-04-29T21:50:15.192Z,11.65
2019-04-29T21:52:46.690Z,9.45
2019-04-29T21:55:16.247Z,8.78
2019-04-29T21:57:45.758Z,11.18
2019-04-29T22:00:20.005Z,9.38
2019-04-29T22:02:49.170Z,9.55
2019-04-29T22:05:19.011Z,9.58
2019-04-29T22:07:48.302Z,10.10
2019-04-29T22:10:19.964Z,9.70
2019-04-29T22:12:55.227Z,11.48
2019-04-29T22:15:29.922Z,10.63
2019-04-29T22:17:56.387Z,11.35
2019-04-29T22:20:22.181Z,11.28
2019-04-29T22:22:51.485Z,12.93
2019-04-29T22:25:20.858Z,11.95
2019-04-29T22:27:50.387Z,13.98
2019-04-29T22:30:20.301Z,12.70
2019-04-29T22:32:51.740Z,12.58
2019-04-29T22:35:20.790Z,14.07
2019-04-29T22:37:50.087Z,13.13
2019-04-29T22:40:19.468Z,12.55
2019-04-29T22:43:04.839Z,12.95
2019-04-29T22:45:29.573Z,14.60
2019-04-29T22:48:12.050Z,12.98
2019-04-29T22:50:33.664Z,14.23
2019-04-29T22:53:07.301Z,12.75
2019-04-29T22:55:35.684Z,12.27
2019-04-29T22:58:08.126Z,15.00
2019-04-29T23:00:36.210Z,12.68
2019-04-29T23:03:05.690Z,12.73
2019-04-29T23:05:37.932Z,12.75
2019-04-29T23:08:07.342Z,13.65
2019-04-29T23:10:36.646Z,15.68
2019-04-29T23:13:06.375Z,14.30
2019-04-29T23:15:35.972Z,13.43
2019-04-29T23:18:06.611Z,14.65
2019-04-29T23:20:49.415Z,16.17
2019-04-29T23:23:20.676Z,14.90
2019-04-29T23:25:52.018Z,16.32
2019-04-29T23:28:22.565Z,18.48
2019-04-29T23:30:53.391Z,17.35
2019-04-29T23:33:24.052Z,17.67
2019-04-29T23:35:55.960Z,19.90
2019-04-29T23:38:25.552Z,19.37
2019-04-29T23:40:56.407Z,16.57
2019-04-29T23:43:28.373Z,20.43
2019-04-29T23:46:00.373Z,17.02
2019-04-29T23:48:38.811Z,17.05
2019-04-29T23:50:58.882Z,16.25
2019-04-29T23:53:28.186Z,18.73
2019-04-29T23:56:00.157Z,18.73
2019-04-29T23:58:39.352Z,15.85
